Airfield :
LOGIN :

Register | Disclaimer

   EN    FR    IT 

 










Legend :    VFR   Marginal VFR   IFR   Intensive IFR   Very Intensive IFR
Visi :
Ceiling :
>= 8 km
>= 3000ft
5 to 8 km
1000 to 3000 ft
1500m to 5 km
500 to 1000 ft
800 to 1500m
200 to 500 ft
< 800m
< 200 ft
Symbols :   Thunderstorms  Fog  Heavy snow  Heavy precipitations  Wind > 20 kt
SIGMETs :     Misc.  Thunderstorms  Icing  Turbulence  Mountain Waves  Volcanic Ashes






- Airport Elevation : 19 ft
- IATA code : LCY


EGLC - London City

CURRENT METAR :
  • 152020Z AUTO 06010KT 020V080 9999 -RA SCT016 BKN022 BKN039 07/05 Q1001

EXPIRED METARs :
  • 151950Z AUTO 06010KT 6000 -RA SCT011 BKN016 BKN024 07/05 Q1001 RERA
  • 151920Z AUTO 04005KT 300V110 9999 -RA FEW011 SCT016 BKN021 08/06 Q1001
  • 151850Z AUTO 01008KT 330V040 9999 -RA SCT013 BKN017 OVC034 08/06 Q1001
  • 151820Z AUTO 36008KT 320V070 9999 -RA FEW015 SCT021 BKN025 08/06 Q1001
  • 151750Z AUTO 36008KT 320V060 9999 -RA FEW019/// BKN023/// OVC028/// //////TCU 08/06 Q1001

TAF TAF EGLC
Valid from the 15 at 18:00 until the 15 at 21:00 UTC


151657Z 1518/1521 02012KT 9999 FEW025
TEMPO 1518/1521 8000 RA BKN014
PROB30
TEMPO 1518/1521 4000 +RA SHRA
ATIS : +44 20 7646 0224



MET'MAP, your aeronautical weather chart ! - Copyright ORBIFLY December 2007 - Disclaimer

ORBIFLY MET'MAP TEAM :

Programming & Development : Alexandra Zaïnal
Concept & Development : Baudouin d'Aumeries
Co-Development & Prog : Marc-Olivier Méhu
Technical & hardware support : Manuel Goepfert

Contact : metmap@orbifly.com




SOURCES & CREDITS :

   NOAA